createdAt,value
2023-04-15T00:00:00.284Z,5.6
2023-04-15T00:05:00.299Z,5.0
2023-04-15T00:10:00.284Z,7.5
2023-04-15T00:15:00.244Z,5.5
2023-04-15T00:20:00.447Z,5.9
2023-04-15T00:25:00.266Z,6.1
2023-04-15T00:30:00.269Z,4.5
2023-04-15T00:35:00.274Z,4.4
2023-04-15T00:40:00.280Z,4.3
2023-04-15T00:45:00.288Z,4.4
2023-04-15T00:50:00.291Z,4.5
2023-04-15T00:55:00.303Z,4.5
2023-04-15T01:00:00.295Z,5.5
2023-04-15T01:05:00.248Z,5.0
2023-04-15T01:10:00.320Z,7.1
2023-04-15T01:15:00.330Z,5.3
2023-04-15T01:20:00.323Z,5.5
2023-04-15T01:25:00.244Z,5.5
2023-04-15T01:30:00.280Z,6.6
2023-04-15T01:35:00.280Z,6.5
2023-04-15T01:40:00.366Z,6.2
2023-04-15T01:45:00.283Z,6.0
2023-04-15T01:50:00.294Z,5.8
2023-04-15T01:55:00.260Z,6.5
2023-04-15T02:00:00.300Z,6.1
2023-04-15T02:05:00.285Z,6.0
2023-04-15T02:10:00.288Z,5.7
2023-04-15T02:15:00.297Z,5.9
2023-04-15T02:20:00.321Z,4.7
2023-04-15T02:25:00.279Z,5.0
2023-04-15T02:30:00.346Z,6.1
2023-04-15T02:35:00.420Z,5.9
2023-04-15T02:40:00.288Z,7.0
2023-04-15T02:45:00.296Z,6.2
2023-04-15T02:50:00.300Z,7.2
2023-04-15T02:55:00.253Z,7.0
2023-04-15T03:00:00.283Z,8.6
2023-04-15T03:05:00.248Z,7.5
2023-04-15T03:10:00.269Z,6.8
2023-04-15T03:15:00.264Z,6.8
2023-04-15T03:20:00.296Z,9.3
2023-04-15T03:25:00.284Z,9.1
2023-04-15T03:30:00.282Z,8.2
2023-04-15T03:35:00.293Z,10.1
2023-04-15T03:40:00.250Z,10.8
2023-04-15T03:45:00.325Z,10.7
2023-04-15T03:50:00.294Z,8.7
2023-04-15T03:55:00.244Z,9.0
2023-04-15T04:00:00.295Z,10.2
2023-04-15T04:05:00.247Z,11.6
2023-04-15T04:10:00.298Z,13.7
2023-04-15T04:15:00.291Z,11.6
2023-04-15T04:20:00.286Z,10.9
2023-04-15T04:25:00.251Z,11.0
2023-04-15T04:30:00.277Z,11.3
2023-04-15T04:35:00.312Z,11.7
2023-04-15T04:40:00.274Z,13.4
2023-04-15T04:45:00.291Z,14.0
2023-04-15T04:50:00.386Z,13.4
2023-04-15T04:55:00.280Z,15.7
2023-04-15T05:00:01.094Z,17.5
2023-04-15T05:05:00.456Z,16.8
2023-04-15T05:10:00.277Z,19.9
2023-04-15T05:15:00.280Z,18.4
2023-04-15T05:20:00.298Z,18.9
2023-04-15T05:25:00.290Z,19.7
2023-04-15T05:30:00.289Z,19.4
2023-04-15T05:35:00.304Z,19.7
2023-04-15T05:40:00.278Z,19.8
2023-04-15T05:45:00.292Z,22.0
2023-04-15T05:50:00.300Z,21.3
2023-04-15T05:55:00.238Z,26.9
2023-04-15T06:00:00.295Z,23.8
2023-04-15T06:05:00.427Z,23.0
2023-04-15T06:10:00.277Z,22.7
2023-04-15T06:15:00.521Z,25.3
2023-04-15T06:20:00.300Z,23.4
2023-04-15T06:25:00.306Z,21.2
2023-04-15T06:30:00.292Z,26.7
2023-04-15T06:35:00.237Z,27.7
2023-04-15T06:40:00.297Z,28.0
2023-04-15T06:45:00.274Z,28.7
2023-04-15T06:50:00.312Z,28.9
2023-04-15T06:55:00.252Z,35.9
2023-04-15T07:00:00.974Z,31.4
2023-04-15T07:05:00.233Z,28.8
2023-04-15T07:10:00.274Z,33.4
2023-04-15T07:15:00.287Z,33.8
2023-04-15T07:20:00.322Z,36.0
2023-04-15T07:25:00.255Z,35.1
2023-04-15T07:30:00.303Z,41.1
2023-04-15T07:35:00.281Z,39.0
2023-04-15T07:40:00.341Z,35.8
2023-04-15T07:45:00.242Z,39.4
2023-04-15T07:50:00.271Z,35.2
2023-04-15T07:55:00.303Z,39.4
2023-04-15T08:00:00.283Z,43.9
2023-04-15T08:05:00.365Z,37.2
2023-04-15T08:10:00.280Z,43.3
2023-04-15T08:15:00.314Z,39.5
2023-04-15T08:20:00.249Z,39.3
2023-04-15T08:25:00.397Z,42.8
2023-04-15T08:30:02.105Z,37.8
2023-04-15T08:35:00.295Z,41.2
2023-04-15T08:40:00.292Z,43.2
2023-04-15T08:45:00.280Z,38.0
2023-04-15T08:50:00.280Z,38.2
2023-04-15T08:55:00.503Z,38.1
2023-04-15T09:00:01.765Z,38.9
2023-04-15T09:05:00.297Z,39.1
2023-04-15T09:10:00.295Z,38.7
2023-04-15T09:15:00.276Z,40.9
2023-04-15T09:20:00.284Z,38.1
2023-04-15T09:25:00.290Z,41.8
2023-04-15T09:30:00.349Z,42.1
2023-04-15T09:35:00.243Z,41.6
2023-04-15T09:40:00.289Z,37.5
2023-04-15T09:45:00.265Z,40.0
2023-04-15T09:50:00.505Z,36.5
2023-04-15T09:55:00.341Z,40.9
2023-04-15T10:00:00.287Z,40.1
2023-04-15T10:05:00.251Z,34.2
2023-04-15T10:10:00.278Z,35.9
2023-04-15T10:15:00.260Z,36.6
2023-04-15T10:20:00.291Z,38.6
2023-04-15T10:25:00.238Z,36.4
2023-04-15T10:30:00.287Z,37.1
2023-04-15T10:35:00.317Z,34.5
2023-04-15T10:40:00.274Z,36.4
2023-04-15T10:45:00.254Z,29.3
2023-04-15T10:50:00.316Z,30.4
2023-04-15T10:55:00.280Z,30.5
2023-04-15T11:00:00.347Z,29.8
2023-04-15T11:05:00.328Z,29.8
2023-04-15T11:10:00.295Z,24.8
2023-04-15T11:15:00.270Z,24.1
2023-04-15T11:20:00.272Z,15.2
2023-04-15T11:25:00.290Z,15.5
2023-04-15T11:30:00.293Z,18.3
2023-04-15T11:35:00.278Z,15.6
2023-04-15T11:40:00.282Z,19.5
2023-04-15T11:45:00.310Z,16.2
2023-04-15T11:50:00.306Z,15.4
2023-04-15T11:55:00.286Z,14.8
2023-04-15T12:00:00.341Z,11.8
2023-04-15T12:05:00.296Z,14.0
2023-04-15T12:10:00.300Z,12.7
2023-04-15T12:15:00.309Z,15.3
2023-04-15T12:20:00.286Z,13.1
2023-04-15T12:25:00.292Z,12.4
2023-04-15T12:30:00.286Z,12.8
2023-04-15T12:35:00.267Z,11.2
2023-04-15T12:40:00.301Z,12.1
2023-04-15T12:45:00.280Z,12.0
2023-04-15T12:50:00.292Z,11.3
2023-04-15T12:55:00.301Z,13.1
2023-04-15T13:00:00.274Z,15.3
2023-04-15T13:05:00.370Z,13.5
2023-04-15T13:10:00.236Z,16.2
2023-04-15T13:15:00.290Z,14.3
2023-04-15T13:20:00.301Z,12.7
2023-04-15T13:25:00.268Z,11.7
2023-04-15T13:30:00.524Z,12.3
2023-04-15T13:35:00.240Z,13.1
2023-04-15T13:40:00.342Z,14.1
2023-04-15T13:45:00.277Z,11.4
2023-04-15T13:50:00.318Z,11.0
2023-04-15T13:55:07.227Z,13.9
2023-04-15T14:00:00.274Z,11.9
2023-04-15T14:05:00.292Z,10.9
2023-04-15T14:10:00.308Z,10.5
2023-04-15T14:15:00.237Z,11.1
2023-04-15T14:20:00.288Z,10.1
2023-04-15T14:25:00.305Z,8.4
2023-04-15T14:30:00.283Z,8.2
2023-04-15T14:35:00.250Z,10.4
2023-04-15T14:40:00.315Z,10.4
2023-04-15T14:45:00.276Z,12.6
2023-04-15T14:50:00.268Z,9.8
2023-04-15T14:55:00.300Z,11.8
2023-04-15T15:00:00.277Z,9.2
2023-04-15T15:05:00.467Z,8.8
2023-04-15T15:10:00.315Z,9.8
2023-04-15T15:15:01.614Z,9.1
2023-04-15T15:20:00.324Z,11.0
2023-04-15T15:25:00.277Z,9.9
2023-04-15T15:30:00.627Z,11.0
2023-04-15T15:35:00.264Z,12.1
2023-04-15T15:40:00.398Z,13.5
2023-04-15T15:45:00.294Z,12.4
2023-04-15T15:50:00.303Z,16.4
2023-04-15T15:55:00.285Z,11.8
2023-04-15T16:00:11.343Z,14.2
2023-04-15T16:05:00.317Z,11.3
2023-04-15T16:10:00.277Z,15.7
2023-04-15T16:15:00.276Z,14.6
2023-04-15T16:20:01.163Z,13.9
2023-04-15T16:25:00.281Z,11.1
2023-04-15T16:30:00.321Z,13.4
2023-04-15T16:35:00.388Z,13.4
2023-04-15T16:40:00.298Z,13.3
2023-04-15T16:45:00.852Z,14.5
2023-04-15T16:50:00.257Z,14.7
2023-04-15T16:55:02.291Z,13.7
2023-04-15T17:00:00.309Z,16.6
2023-04-15T17:05:00.243Z,13.9
2023-04-15T17:10:00.297Z,16.3
2023-04-15T17:15:00.255Z,14.5
2023-04-15T17:20:00.300Z,14.9
2023-04-15T17:25:00.298Z,17.0
2023-04-15T17:30:00.288Z,18.3
2023-04-15T17:35:00.239Z,16.4
2023-04-15T17:40:00.275Z,16.5
2023-04-15T17:45:00.306Z,16.4
2023-04-15T17:50:00.315Z,20.0
2023-04-15T17:55:00.251Z,20.6
2023-04-15T18:00:00.263Z,17.3
2023-04-15T18:05:00.388Z,17.0
2023-04-15T18:10:00.274Z,20.1
2023-04-15T18:15:00.283Z,21.0
2023-04-15T18:20:00.277Z,17.3
2023-04-15T18:25:00.236Z,19.4
2023-04-15T18:30:00.375Z,17.7
2023-04-15T18:35:00.296Z,18.8
2023-04-15T18:40:00.277Z,19.3
2023-04-15T18:45:00.249Z,21.4
2023-04-15T18:50:00.315Z,23.7
2023-04-15T18:55:00.246Z,20.4
2023-04-15T19:00:00.287Z,20.7
2023-04-15T19:05:00.279Z,18.8
2023-04-15T19:10:00.293Z,20.8
2023-04-15T19:15:00.250Z,21.6
2023-04-15T19:20:00.294Z,19.5
2023-04-15T19:25:00.948Z,20.8
2023-04-15T19:30:00.285Z,21.0
2023-04-15T19:35:00.267Z,21.1
2023-04-15T19:40:00.291Z,19.4
2023-04-15T19:45:00.261Z,21.6
2023-04-15T19:50:00.286Z,16.7
2023-04-15T19:55:00.278Z,19.3
2023-04-15T20:00:00.302Z,19.3
2023-04-15T20:05:00.245Z,18.3
2023-04-15T20:10:00.358Z,18.7
2023-04-15T20:15:00.278Z,16.7
2023-04-15T20:20:00.326Z,16.9
2023-04-15T20:25:00.291Z,18.8
2023-04-15T20:30:00.400Z,17.2
2023-04-15T20:35:01.110Z,19.8
2023-04-15T20:40:00.273Z,19.2
2023-04-15T20:45:00.280Z,19.4
2023-04-15T20:50:00.283Z,16.5
2023-04-15T20:55:00.305Z,26.0
2023-04-15T21:00:00.238Z,20.4
2023-04-15T21:05:00.484Z,20.2
2023-04-15T21:10:00.262Z,18.3
2023-04-15T21:15:00.287Z,22.0
2023-04-15T21:20:00.289Z,18.6
2023-04-15T21:25:00.293Z,19.8
2023-04-15T21:30:00.246Z,18.7
2023-04-15T21:35:00.296Z,22.1
2023-04-15T21:40:00.293Z,18.8
2023-04-15T21:45:00.298Z,19.9
2023-04-15T21:50:00.246Z,17.4
2023-04-15T21:55:00.282Z,19.3
2023-04-15T22:00:00.316Z,18.2
2023-04-15T22:05:00.284Z,20.7
2023-04-15T22:10:00.312Z,18.4
2023-04-15T22:15:00.313Z,23.4
2023-04-15T22:20:00.405Z,26.2
2023-04-15T22:25:00.240Z,18.4
2023-04-15T22:30:00.276Z,21.4
2023-04-15T22:35:00.270Z,19.4
2023-04-15T22:40:00.301Z,21.1
2023-04-15T22:45:00.239Z,27.6
2023-04-15T22:50:00.288Z,20.6
2023-04-15T22:55:00.243Z,19.4
2023-04-15T23:00:00.737Z,23.0
2023-04-15T23:05:00.506Z,21.2
2023-04-15T23:10:00.275Z,21.2
2023-04-15T23:15:00.239Z,18.0
2023-04-15T23:20:00.306Z,22.9
2023-04-15T23:25:00.274Z,21.9
2023-04-15T23:30:00.298Z,21.5
2023-04-15T23:35:00.261Z,20.5
2023-04-15T23:40:00.290Z,23.1
2023-04-15T23:45:00.267Z,23.2
2023-04-15T23:50:00.276Z,22.6
2023-04-15T23:55:00.304Z,22.6
